Time,TemperatureF,DewpointF,PressureIn,WindDirection,WindDirectionDegrees,WindSpeedMPH,WindSpeedGustMPH,Humidity,HourlyPrecipIn,Conditions,Clouds,dailyrainin,SolarRadiationWatts/m^2,SoftwareType,DateUTC
2013-02-20 00:11:00,29.0,8.0,-100.00,NNE,17,2.0,4.0,41,-99.99,,,0.00,0.000000,,2013-02-20 07:11:00,
2013-02-20 00:21:00,29.0,8.0,-100.00,NNE,17,2.0,4.0,41,-99.99,,,0.00,0.000000,,2013-02-20 07:21:00,
2013-02-20 00:31:00,29.0,8.0,-100.00,NNE,17,2.0,4.0,41,-99.99,,,0.00,0.000000,,2013-02-20 07:31:00,
2013-02-20 00:41:00,29.0,8.0,-100.00,NNE,17,2.0,4.0,41,-99.99,,,0.00,0.000000,,2013-02-20 07:41:00,
2013-02-20 01:11:00,28.0,7.0,-100.00,ENE,62,3.0,8.0,41,-99.99,,,0.00,0.000000,,2013-02-20 08:11:00,
2013-02-20 01:21:00,28.0,7.0,-100.00,ENE,62,3.0,8.0,41,-99.99,,,0.00,0.000000,,2013-02-20 08:21:00,
2013-02-20 01:51:00,24.0,9.0,-100.00,West,278,1.0,5.0,51,-99.99,,,-99.99,0.000000,,2013-02-20 08:51:00,
2013-02-20 02:11:00,24.0,9.0,-100.00,West,278,1.0,5.0,51,-99.99,,,-99.99,0.000000,,2013-02-20 09:11:00,
2013-02-20 02:21:00,24.0,9.0,-100.00,West,278,1.0,5.0,51,-99.99,,,-99.99,0.000000,,2013-02-20 09:21:00,
2013-02-20 02:31:00,24.0,9.0,-100.00,West,278,1.0,5.0,51,-99.99,,,-99.99,0.000000,,2013-02-20 09:31:00,
2013-02-20 02:41:00,24.0,9.0,-100.00,West,278,1.0,5.0,51,-99.99,,,-99.99,0.000000,,2013-02-20 09:41:00,
2013-02-20 03:12:00,25.0,8.0,-100.00,NE,52,5.0,9.0,48,0.00,,,0.00,0.000000,,2013-02-20 10:12:00,
2013-02-20 03:21:00,25.0,8.0,-100.00,NE,52,5.0,9.0,48,0.00,,,0.00,0.000000,,2013-02-20 10:21:00,
2013-02-20 03:31:00,25.0,8.0,-100.00,NE,52,5.0,9.0,48,0.00,,,0.00,0.000000,,2013-02-20 10:31:00,
2013-02-20 04:21:00,25.0,8.0,-100.00,NE,52,3.0,8.0,48,0.00,,,-99.99,0.000000,,2013-02-20 11:21:00,
2013-02-20 04:32:00,25.0,8.0,-100.00,NE,52,3.0,8.0,48,0.00,,,-99.99,0.000000,,2013-02-20 11:32:00,
2013-02-20 04:51:00,24.0,7.0,-100.00,NW,322,1.0,6.0,47,-99.99,,,-99.99,0.000000,,2013-02-20 11:51:00,
2013-02-20 05:12:00,24.0,7.0,-100.00,NW,322,1.0,6.0,47,-99.99,,,-99.99,0.000000,,2013-02-20 12:12:00,
2013-02-20 05:21:00,24.0,7.0,-100.00,NW,322,1.0,6.0,47,-99.99,,,-99.99,0.000000,,2013-02-20 12:21:00,
2013-02-20 05:31:00,24.0,7.0,-100.00,NW,322,1.0,6.0,47,-99.99,,,-99.99,0.000000,,2013-02-20 12:31:00,
2013-02-20 05:42:00,24.0,7.0,-100.00,NW,322,1.0,6.0,47,-99.99,,,-99.99,0.000000,,2013-02-20 12:42:00,
2013-02-20 05:51:00,24.0,7.0,-100.00,ENE,76,2.0,5.0,47,-99.99,,,0.00,0.000000,,2013-02-20 12:51:00,
2013-02-20 06:11:00,24.0,7.0,-100.00,ENE,76,2.0,5.0,47,-99.99,,,0.00,0.000000,,2013-02-20 13:11:00,
2013-02-20 06:22:00,24.0,7.0,-100.00,ENE,76,2.0,5.0,47,-99.99,,,0.00,0.000000,,2013-02-20 13:22:00,
2013-02-20 06:31:00,24.0,7.0,-100.00,ENE,76,2.0,5.0,47,-99.99,,,0.00,0.000000,,2013-02-20 13:31:00,
2013-02-20 06:42:00,24.0,7.0,-100.00,ENE,76,2.0,5.0,47,-99.99,,,0.00,0.000000,,2013-02-20 13:42:00,
2013-02-20 07:51:00,25.0,7.0,-100.00,ENE,73,3.0,5.0,46,-99.99,,,0.00,23.000000,,2013-02-20 14:51:00,
2013-02-20 08:11:00,25.0,7.0,-100.00,ENE,73,3.0,5.0,46,-99.99,,,0.00,23.000000,,2013-02-20 15:11:00,
2013-02-20 08:22:00,25.0,7.0,-100.00,ENE,73,3.0,5.0,46,-99.99,,,0.00,23.000000,,2013-02-20 15:22:00,
2013-02-20 08:32:00,25.0,7.0,-100.00,ENE,73,3.0,5.0,46,-99.99,,,0.00,23.000000,,2013-02-20 15:32:00,
2013-02-20 08:41:00,25.0,7.0,-100.00,ENE,73,3.0,5.0,46,-99.99,,,0.00,23.000000,,2013-02-20 15:41:00,
2013-02-20 08:51:00,28.0,8.0,-100.00,NNE,15,3.0,7.0,43,0.00,,,0.00,109.000000,,2013-02-20 15:51:00,
2013-02-20 09:21:00,28.0,8.0,-100.00,NNE,15,3.0,7.0,43,0.00,,,0.00,109.000000,,2013-02-20 16:21:00,
2013-02-20 09:32:00,28.0,8.0,-100.00,NNE,15,3.0,7.0,43,0.00,,,0.00,109.000000,,2013-02-20 16:32:00,
2013-02-20 09:41:00,28.0,8.0,-100.00,NNE,15,3.0,7.0,43,0.00,,,0.00,109.000000,,2013-02-20 16:41:00,
2013-02-20 09:51:00,32.0,9.0,-100.00,NE,47,3.0,9.0,38,0.00,,,0.00,335.000000,,2013-02-20 16:51:00,
2013-02-20 10:21:00,32.0,9.0,-100.00,NE,47,3.0,9.0,38,0.00,,,0.00,335.000000,,2013-02-20 17:21:00,
2013-02-20 10:32:00,32.0,9.0,-100.00,NE,47,3.0,9.0,38,0.00,,,0.00,335.000000,,2013-02-20 17:32:00,
2013-02-20 10:41:00,32.0,9.0,-100.00,NE,47,3.0,9.0,38,0.00,,,0.00,335.000000,,2013-02-20 17:41:00,
2013-02-20 10:51:00,36.0,11.0,-100.00,NNE,29,3.0,9.0,35,0.00,,,0.00,469.000000,,2013-02-20 17:51:00,
2013-02-20 11:21:00,36.0,11.0,-100.00,NNE,29,3.0,9.0,35,0.00,,,0.00,469.000000,,2013-02-20 18:21:00,
2013-02-20 11:31:00,36.0,11.0,-100.00,NNE,29,3.0,9.0,35,0.00,,,0.00,469.000000,,2013-02-20 18:31:00,
2013-02-20 11:42:00,36.0,11.0,-100.00,NNE,29,3.0,9.0,35,0.00,,,0.00,469.000000,,2013-02-20 18:42:00,
2013-02-20 11:51:00,39.0,12.0,-100.00,SW,234,2.0,5.0,33,0.00,,,0.00,499.000000,,2013-02-20 18:51:00,
2013-02-20 12:21:00,39.0,12.0,-100.00,SW,234,2.0,5.0,33,0.00,,,0.00,499.000000,,2013-02-20 19:21:00,
2013-02-20 12:31:00,39.0,12.0,-100.00,SW,234,2.0,5.0,33,0.00,,,0.00,499.000000,,2013-02-20 19:31:00,
2013-02-20 12:41:00,39.0,12.0,-100.00,SW,234,2.0,5.0,33,0.00,,,0.00,499.000000,,2013-02-20 19:41:00,
2013-02-20 12:51:00,49.0,15.0,-100.00,West,264,1.0,4.0,25,0.00,,,0.00,719.000000,,2013-02-20 19:51:00,
2013-02-20 13:21:00,49.0,15.0,-100.00,West,264,1.0,4.0,25,0.00,,,0.00,719.000000,,2013-02-20 20:21:00,
2013-02-20 13:31:00,49.0,15.0,-100.00,West,264,1.0,4.0,25,0.00,,,0.00,719.000000,,2013-02-20 20:31:00,
2013-02-20 13:41:00,49.0,15.0,-100.00,West,264,1.0,4.0,25,0.00,,,0.00,719.000000,,2013-02-20 20:41:00,
2013-02-20 13:51:00,44.0,15.0,-100.00,West,259,13.0,17.0,30,0.00,,,0.00,829.000000,,2013-02-20 20:51:00,
2013-02-20 14:11:00,44.0,15.0,-100.00,West,259,13.0,17.0,30,0.00,,,0.00,829.000000,,2013-02-20 21:11:00,
2013-02-20 14:21:00,44.0,15.0,-100.00,West,259,13.0,17.0,30,0.00,,,0.00,829.000000,,2013-02-20 21:21:00,
2013-02-20 14:31:00,44.0,15.0,-100.00,West,259,13.0,17.0,30,0.00,,,0.00,829.000000,,2013-02-20 21:31:00,
2013-02-20 14:41:00,44.0,15.0,-100.00,West,259,13.0,17.0,30,0.00,,,0.00,829.000000,,2013-02-20 21:41:00,
2013-02-20 14:51:00,42.0,15.0,-100.00,WSW,256,13.0,17.0,33,0.00,,,0.00,652.000000,,2013-02-20 21:51:00,
2013-02-20 15:11:00,42.0,15.0,-100.00,WSW,256,13.0,17.0,33,0.00,,,0.00,652.000000,,2013-02-20 22:11:00,
2013-02-20 15:21:00,42.0,15.0,-100.00,WSW,256,13.0,17.0,33,0.00,,,0.00,652.000000,,2013-02-20 22:21:00,
2013-02-20 15:31:00,42.0,15.0,-100.00,WSW,256,13.0,17.0,33,0.00,,,0.00,652.000000,,2013-02-20 22:31:00,
2013-02-20 15:41:00,42.0,15.0,-100.00,WSW,256,13.0,17.0,33,0.00,,,0.00,652.000000,,2013-02-20 22:41:00,
2013-02-20 15:51:00,40.0,16.0,-100.00,West,259,16.0,22.0,38,0.00,,,0.00,351.000000,,2013-02-20 22:51:00,
2013-02-20 16:12:00,40.0,16.0,-100.00,West,259,16.0,22.0,38,0.00,,,0.00,351.000000,,2013-02-20 23:12:00,
2013-02-20 16:22:00,40.0,16.0,-100.00,West,259,16.0,22.0,38,0.00,,,0.00,351.000000,,2013-02-20 23:22:00,
2013-02-20 16:31:00,40.0,16.0,-100.00,West,259,16.0,22.0,38,0.00,,,0.00,351.000000,,2013-02-20 23:31:00,
2013-02-20 16:42:00,40.0,16.0,-100.00,West,259,16.0,22.0,38,0.00,,,0.00,351.000000,,2013-02-20 23:42:00,
2013-02-20 16:51:00,39.0,18.0,-100.00,West,263,15.0,22.0,42,0.00,,,0.00,150.000000,,2013-02-20 23:51:00,
2013-02-20 17:21:00,39.0,18.0,-100.00,West,263,15.0,22.0,42,0.00,,,0.00,150.000000,,2013-02-21 00:21:00,
2013-02-20 17:32:00,39.0,18.0,-100.00,West,263,15.0,22.0,42,0.00,,,0.00,150.000000,,2013-02-21 00:32:00,
2013-02-20 17:42:00,39.0,18.0,-100.00,West,263,15.0,22.0,42,0.00,,,0.00,150.000000,,2013-02-21 00:42:00,
2013-02-20 17:51:00,37.0,19.0,-100.00,WSW,255,15.0,29.0,48,0.00,,,0.00,26.000000,,2013-02-21 00:51:00,
2013-02-20 18:21:00,37.0,19.0,-100.00,WSW,255,15.0,29.0,48,0.00,,,0.00,26.000000,,2013-02-21 01:21:00,
2013-02-20 18:32:00,37.0,19.0,-100.00,WSW,255,15.0,29.0,48,0.00,,,0.00,26.000000,,2013-02-21 01:32:00,
2013-02-20 18:41:00,37.0,19.0,-100.00,WSW,255,15.0,29.0,48,0.00,,,0.00,26.000000,,2013-02-21 01:41:00,
2013-02-20 18:51:00,37.0,18.0,-100.00,WNW,289,9.0,21.0,45,0.00,,,0.00,0.000000,,2013-02-21 01:51:00,
2013-02-20 19:11:00,37.0,18.0,-100.00,WNW,289,9.0,21.0,45,0.00,,,0.00,0.000000,,2013-02-21 02:11:00,
2013-02-20 19:21:00,37.0,18.0,-100.00,WNW,289,9.0,21.0,45,0.00,,,0.00,0.000000,,2013-02-21 02:21:00,
2013-02-20 19:32:00,37.0,18.0,-100.00,WNW,289,9.0,21.0,45,0.00,,,0.00,0.000000,,2013-02-21 02:32:00,
2013-02-20 19:42:00,37.0,18.0,-100.00,WNW,289,9.0,21.0,45,0.00,,,0.00,0.000000,,2013-02-21 02:42:00,
2013-02-20 19:51:00,35.0,21.0,-100.00,West,262,13.0,19.0,56,0.00,,,0.00,0.000000,,2013-02-21 02:51:00,
2013-02-20 20:12:00,35.0,21.0,-100.00,West,262,13.0,19.0,56,0.00,,,0.00,0.000000,,2013-02-21 03:12:00,
2013-02-20 20:21:00,35.0,21.0,-100.00,West,262,13.0,19.0,56,0.00,,,0.00,0.000000,,2013-02-21 03:21:00,
2013-02-20 20:31:00,35.0,21.0,-100.00,West,262,13.0,19.0,56,0.00,,,0.00,0.000000,,2013-02-21 03:31:00,
2013-02-20 20:41:00,35.0,21.0,-100.00,West,262,13.0,19.0,56,0.00,,,0.00,0.000000,,2013-02-21 03:41:00,
2013-02-20 20:51:00,34.0,22.0,-100.00,WSW,248,16.0,21.0,62,0.00,,,0.00,0.000000,,2013-02-21 03:51:00,
2013-02-20 21:21:00,34.0,22.0,-100.00,WSW,248,16.0,21.0,62,0.00,,,0.00,0.000000,,2013-02-21 04:21:00,
2013-02-20 21:31:00,34.0,22.0,-100.00,WSW,248,16.0,21.0,62,0.00,,,0.00,0.000000,,2013-02-21 04:31:00,
2013-02-20 21:41:00,34.0,22.0,-100.00,WSW,248,16.0,21.0,62,0.00,,,0.00,0.000000,,2013-02-21 04:41:00,
2013-02-20 21:51:00,32.0,24.0,-100.00,WSW,246,18.0,24.0,73,0.00,,,0.00,0.000000,,2013-02-21 04:51:00,
2013-02-20 22:22:00,32.0,24.0,-100.00,WSW,246,18.0,24.0,73,0.00,,,0.00,0.000000,,2013-02-21 05:22:00,
2013-02-20 22:33:00,32.0,24.0,-100.00,WSW,246,18.0,24.0,73,0.00,,,0.00,0.000000,,2013-02-21 05:33:00,
2013-02-20 22:43:00,32.0,24.0,-100.00,WSW,246,18.0,24.0,73,0.00,,,0.00,0.000000,,2013-02-21 05:43:00,
2013-02-20 22:51:00,32.0,23.0,-100.00,WSW,247,19.0,23.0,69,0.00,,,0.00,0.000000,,2013-02-21 05:51:00,
2013-02-20 23:11:00,32.0,23.0,-100.00,WSW,247,19.0,23.0,69,0.00,,,0.00,0.000000,,2013-02-21 06:11:00,
2013-02-20 23:21:00,32.0,23.0,-100.00,WSW,247,19.0,23.0,69,0.00,,,0.00,0.000000,,2013-02-21 06:21:00,
2013-02-20 23:31:00,32.0,23.0,-100.00,WSW,247,19.0,23.0,69,0.00,,,0.00,0.000000,,2013-02-21 06:31:00,
2013-02-20 23:41:00,32.0,23.0,-100.00,WSW,247,19.0,23.0,69,0.00,,,0.00,0.000000,,2013-02-21 06:41:00,
2013-02-20 23:51:00,31.0,23.0,-100.00,WSW,255,18.0,23.0,71,0.00,,,0.00,0.000000,,2013-02-21 06:51:00,